Time;durP1;ratioP1;P1;durP2;ratioP2;P2;SDS_P1;SDS_P2;PMS_P1;PMS_P2;Temp;Humidity;BMP_temperature;BMP_pressure;BME280_temperature;BME280_humidity;BME280_pressure;Samples;Min_cycle;Max_cycle;Signal;HPM_P1;HPM_P2
2022/07/27 00:01:24;;;;;;;7.10;4.97;;;;;;;20.18;68.75;99229.95;1800770;79;21717;-76
2022/07/27 00:03:51;;;;;;;5.35;4.42;;;;;;;20.18;68.89;99224.55;1814417;78;21030;-77
2022/07/27 00:06:19;;;;;;;5.53;5.03;;;;;;;20.20;68.79;99222.46;1814269;78;21081;-78
2022/07/27 00:08:47;;;;;;;6.10;4.83;;;;;;;20.20;68.79;99224.31;1813448;79;21457;-80
2022/07/27 00:11:14;;;;;;;5.78;5.08;;;;;;;20.19;68.72;99233.48;1813441;79;21563;-79
2022/07/27 00:13:40;;;;;;;5.58;4.83;;;;;;;20.14;68.86;99229.34;1814617;78;21083;-79
2022/07/27 00:16:06;;;;;;;5.47;4.40;;;;;;;20.09;69.06;99228.73;1809255;79;21010;-80
2022/07/27 00:18:35;;;;;;;8.83;4.67;;;;;;;20.08;68.82;99227.62;1806637;79;21080;-79
2022/07/27 00:21:01;;;;;;;5.58;4.80;;;;;;;20.07;68.93;99226.81;1800021;79;21025;-80
2022/07/27 00:23:28;;;;;;;7.58;4.85;;;;;;;20.06;69.03;99223.81;1806320;79;21045;-77
2022/07/27 00:25:55;;;;;;;6.05;5.17;;;;;;;20.06;68.99;99225.16;1808266;79;21092;-77
2022/07/27 00:28:22;;;;;;;5.35;4.65;;;;;;;20.06;69.06;99227.05;1801482;79;21494;-78
2022/07/27 00:30:48;;;;;;;5.53;3.92;;;;;;;20.02;69.04;99231.56;1788921;78;20990;-78
2022/07/27 00:33:15;;;;;;;4.47;4.00;;;;;;;20.06;68.78;99227.86;1807974;78;21037;-75
2022/07/27 00:35:41;;;;;;;5.08;4.58;;;;;;;20.16;68.54;99228.56;1811619;78;21042;-76
2022/07/27 00:38:08;;;;;;;5.72;4.97;;;;;;;20.15;68.59;99231.80;1813582;78;21187;-76
2022/07/27 00:40:34;;;;;;;6.12;4.50;;;;;;;20.16;68.54;99233.95;1814196;78;21050;-77
2022/07/27 00:43:00;;;;;;;7.40;4.65;;;;;;;20.15;68.41;99223.71;1799557;79;20971;-76
2022/07/27 00:45:27;;;;;;;6.95;4.33;;;;;;;20.16;68.33;99223.17;1810487;78;20974;-76
2022/07/27 00:47:54;;;;;;;4.42;3.42;;;;;;;20.15;68.24;99222.36;1810381;78;21066;-78
2022/07/27 00:50:21;;;;;;;5.33;3.50;;;;;;;20.18;67.34;99225.09;1797862;78;21234;-77
2022/07/27 00:52:47;;;;;;;3.50;2.90;;;;;;;20.25;66.84;99232.50;1804093;79;21992;-76
2022/07/27 00:55:15;;;;;;;5.78;3.40;;;;;;;20.32;66.45;99226.43;1794660;79;21127;-78
2022/07/27 00:57:42;;;;;;;4.20;3.05;;;;;;;20.39;66.26;99228.95;1796460;79;21190;-78
2022/07/27 01:00:10;;;;;;;4.35;3.22;;;;;;;20.46;65.97;99230.96;1800572;79;21037;-79
2022/07/27 01:02:36;;;;;;;4.15;3.42;;;;;;;20.50;65.17;99228.59;1810349;79;21641;-79
2022/07/27 01:05:04;;;;;;;10.03;3.87;;;;;;;20.56;65.08;99226.26;1800711;78;21066;-76
2022/07/27 01:07:31;;;;;;;4.42;3.30;;;;;;;20.61;65.33;99233.13;1809706;79;21041;-77
2022/07/27 01:09:58;;;;;;;4.70;3.65;;;;;;;20.62;65.29;99232.85;1808046;78;21584;-78
2022/07/27 01:12:27;;;;;;;5.08;3.60;;;;;;;20.62;65.39;99231.51;1803442;79;21478;-78
2022/07/27 01:14:55;;;;;;;5.15;3.20;;;;;;;20.57;67.49;99231.41;1796395;79;21081;-77
2022/07/27 01:17:29;;;;;;;3.10;2.77;;;;;;;20.58;65.64;99233.03;1806797;79;21060;-78
2022/07/27 01:19:56;;;;;;;3.17;2.87;;;;;;;20.56;65.24;99230.30;1797799;79;21022;-79
2022/07/27 01:22:23;;;;;;;4.35;3.77;;;;;;;20.53;64.95;99232.97;1804266;79;21057;-80
2022/07/27 01:24:50;;;;;;;3.67;3.33;;;;;;;20.50;64.83;99229.95;1788180;79;20990;-80
2022/07/27 01:27:16;;;;;;;3.45;3.15;;;;;;;20.46;64.65;99229.62;1800460;79;22006;-78
2022/07/27 01:29:43;;;;;;;9.18;3.40;;;;;;;20.44;64.54;99223.65;1794207;78;20975;-79
2022/07/27 01:32:09;;;;;;;3.98;3.58;;;;;;;20.41;64.39;99228.17;1800457;79;21037;-82
2022/07/27 01:34:36;;;;;;;5.95;3.58;;;;;;;20.39;64.41;99229.77;1793028;79;21077;-79
2022/07/27 01:37:03;;;;;;;4.72;3.52;;;;;;;20.40;64.47;99230.06;1805687;79;21537;-79
2022/07/27 01:39:30;;;;;;;3.90;3.45;;;;;;;20.41;64.11;99222.78;1799923;78;21534;-76
2022/07/27 01:41:59;;;;;;;4.83;3.55;;;;;;;20.40;64.19;99227.36;1790429;78;21026;-78
2022/07/27 01:44:26;;;;;;;4.17;3.75;;;;;;;20.40;64.09;99227.36;1813973;78;21026;-78
2022/07/27 01:46:52;;;;;;;4.40;4.00;;;;;;;20.40;64.11;99227.91;1813024;78;21014;-79
2022/07/27 01:49:19;;;;;;;4.28;3.52;;;;;;;20.38;64.53;99226.80;1814603;77;20955;-78
2022/07/27 01:51:45;;;;;;;3.62;3.20;;;;;;;20.38;64.53;99228.68;1795308;77;21897;-78
2022/07/27 01:54:12;;;;;;;3.80;3.40;;;;;;;20.36;64.41;99227.57;1810260;78;21022;-82
2022/07/27 01:56:40;;;;;;;3.90;3.50;;;;;;;20.32;64.61;99218.34;1810575;78;21524;-80
2022/07/27 01:59:06;;;;;;;3.95;3.40;;;;;;;20.30;65.09;99223.67;1810000;78;21021;-79
2022/07/27 02:01:33;;;;;;;5.28;3.90;;;;;;;20.26;64.91;99227.38;1808937;78;21568;-79
2022/07/27 02:04:00;;;;;;;4.50;3.45;;;;;;;20.22;65.06;99221.69;1801576;78;21811;-79
2022/07/27 02:06:26;;;;;;;5.15;3.08;;;;;;;20.19;65.04;99218.66;1815058;78;21513;-77
2022/07/27 02:08:52;;;;;;;4.40;2.87;;;;;;;20.15;65.48;99214.27;1802021;78;21512;-80
2022/07/27 02:14:04;;;;;;;4.05;3.47;;;;;;;20.07;65.47;99214.68;1808704;78;21012;-77
2022/07/27 02:16:31;;;;;;;3.72;3.22;;;;;;;20.05;65.47;99222.19;1811284;78;21741;-77
2022/07/27 02:18:58;;;;;;;4.00;3.60;;;;;;;20.03;65.97;99221.08;1796832;78;21028;-76
2022/07/27 02:21:25;;;;;;;3.70;3.40;;;;;;;20.03;65.84;99226.48;1809712;78;21006;-76
2022/07/27 02:23:51;;;;;;;3.90;3.55;;;;;;;20.02;65.90;99223.48;1802164;78;21036;-76
2022/07/27 02:26:18;;;;;;;5.47;3.62;;;;;;;20.02;65.95;99230.76;1818998;78;21064;-75
2022/07/27 02:28:45;;;;;;;6.22;3.30;;;;;;;20.01;65.79;99223.72;1818824;77;21533;-74
2022/07/27 02:31:12;;;;;;;4.75;3.02;;;;;;;19.99;65.77;99222.63;1808252;77;21120;-76
2022/07/27 02:33:39;;;;;;;5.40;3.47;;;;;;;20.00;65.99;99220.75;1804140;78;21067;-74
2022/07/27 02:36:05;;;;;;;4.15;3.42;;;;;;;20.01;66.15;99229.95;1809610;78;21285;-75
2022/07/27 02:38:32;;;;;;;5.12;3.45;;;;;;;20.02;65.70;99226.17;1818442;78;21097;-74
2022/07/27 02:40:58;;;;;;;5.42;3.77;;;;;;;20.06;66.00;99231.09;1811579;77;21075;-77
2022/07/27 02:43:25;;;;;;;3.70;3.40;;;;;;;20.07;66.36;99239.45;1783784;79;21021;-76
2022/07/27 02:45:51;;;;;;;7.83;4.10;;;;;;;20.04;66.40;99232.67;1812570;79;21581;-75
2022/07/27 02:48:18;;;;;;;5.25;3.70;;;;;;;19.98;66.83;99239.05;1813012;78;21577;-74
2022/07/27 02:50:44;;;;;;;8.23;4.42;;;;;;;19.87;67.09;99227.78;1808181;79;21049;-75
2022/07/27 02:53:11;;;;;;;8.58;4.08;;;;;;;19.84;67.25;99238.52;1812781;78;22187;-76
2022/07/27 02:55:37;;;;;;;5.35;3.92;;;;;;;19.78;67.44;99232.22;1811509;78;20997;-74
2022/07/27 02:58:04;;;;;;;5.85;3.90;;;;;;;19.75;67.96;99237.27;1815685;79;21548;-76
2022/07/27 03:00:32;;;;;;;5.20;3.47;;;;;;;19.69;68.00;99240.36;1802615;79;21006;-76
2022/07/27 03:02:59;;;;;;;5.03;3.50;;;;;;;19.65;68.02;99238.67;1801975;79;21710;-76
2022/07/27 03:05:26;;;;;;;4.28;3.55;;;;;;;19.61;68.30;99241.56;1804060;78;21532;-76
2022/07/27 03:07:54;;;;;;;4.17;3.77;;;;;;;19.58;68.58;99243.91;1797283;79;21061;-75
2022/07/27 03:10:20;;;;;;;4.97;3.75;;;;;;;19.56;68.69;99254.11;1776369;79;21010;-76
2022/07/27 03:12:47;;;;;;;5.53;3.37;;;;;;;19.53;68.91;99254.06;1798337;78;21019;-74
2022/07/27 03:15:13;;;;;;;3.05;2.75;;;;;;;19.53;69.45;99246.48;1806142;79;21580;-75
2022/07/27 03:17:40;;;;;;;4.85;3.30;;;;;;;19.56;69.00;99243.33;1793560;79;22542;-74
2022/07/27 03:20:08;;;;;;;4.05;3.30;;;;;;;19.65;68.54;99242.71;1798529;79;21478;-76
2022/07/27 03:22:35;;;;;;;4.85;2.92;;;;;;;19.69;68.22;99243.59;1810989;78;21053;-77
2022/07/27 03:25:01;;;;;;;4.65;3.47;;;;;;;19.70;68.30;99249.25;1802231;79;20998;-77
2022/07/27 03:27:28;;;;;;;3.00;2.75;;;;;;;19.70;68.27;99247.41;1804746;79;21022;-75
2022/07/27 03:29:56;;;;;;;3.50;3.20;;;;;;;19.71;68.34;99247.67;1801770;79;21508;-76
2022/07/27 03:32:22;;;;;;;5.55;3.62;;;;;;;19.72;68.46;99249.36;1794163;79;21006;-75
2022/07/27 03:34:49;;;;;;;7.15;3.60;;;;;;;19.73;68.40;99250.98;1799812;78;21011;-75
2022/07/27 03:37:17;;;;;;;4.90;3.85;;;;;;;19.73;68.52;99250.98;1792426;79;21014;-75
2022/07/27 03:39:44;;;;;;;5.30;3.30;;;;;;;19.74;68.45;99242.36;1811411;79;21044;-77
2022/07/27 03:42:11;;;;;;;6.05;3.70;;;;;;;19.74;67.95;99251.28;1792578;79;21216;-76
2022/07/27 03:44:39;;;;;;;5.40;3.70;;;;;;;19.75;67.87;99248.86;1810196;78;21022;-76
2022/07/27 03:47:05;;;;;;;3.77;3.25;;;;;;;19.78;67.98;99255.63;1788041;79;21035;-73
2022/07/27 03:49:32;;;;;;;6.15;3.87;;;;;;;19.81;67.91;99251.12;1805903;79;21010;-75
2022/07/27 03:51:58;;;;;;;5.45;3.60;;;;;;;19.84;68.05;99250.12;1810831;78;20970;-75
2022/07/27 03:54:26;;;;;;;6.35;3.35;;;;;;;19.89;68.09;99247.23;1814935;78;21652;-74
2022/07/27 03:56:52;;;;;;;3.72;3.12;;;;;;;19.98;67.67;99241.20;1811739;79;21005;-75
2022/07/27 03:59:18;;;;;;;7.83;3.87;;;;;;;20.15;67.26;99243.94;1810200;79;21119;-76
2022/07/27 04:01:45;;;;;;;3.62;3.33;;;;;;;20.23;67.06;99242.72;1803132;79;21537;-76
2022/07/27 04:04:12;;;;;;;6.17;3.10;;;;;;;20.29;66.81;99243.62;1811768;79;20962;-74
2022/07/27 04:06:39;;;;;;;4.05;3.40;;;;;;;20.36;66.49;99243.75;1783592;79;21233;-76
2022/07/27 04:09:05;;;;;;;5.95;3.42;;;;;;;20.43;66.36;99246.28;1804769;79;21542;-76
2022/07/27 04:11:32;;;;;;;5.17;3.75;;;;;;;20.48;66.37;99242.33;1811532;79;20982;-76
2022/07/27 04:13:59;;;;;;;5.05;3.62;;;;;;;20.56;66.11;99240.56;1798856;79;21007;-77
2022/07/27 04:16:26;;;;;;;7.03;3.05;;;;;;;20.63;65.84;99239.09;1800884;78;21084;-76
2022/07/27 04:18:53;;;;;;;3.50;3.20;;;;;;;20.69;65.88;99240.80;1806671;77;21489;-76
2022/07/27 04:21:20;;;;;;;7.15;3.42;;;;;;;20.77;65.50;99242.27;1805098;77;21053;-76
2022/07/27 04:23:46;;;;;;;5.28;3.70;;;;;;;20.85;65.09;99240.48;1808289;79;21085;-76
2022/07/27 04:26:14;;;;;;;3.50;3.20;;;;;;;20.94;64.38;99239.01;1811984;78;21089;-76
2022/07/27 04:28:41;;;;;;;5.67;3.67;;;;;;;21.06;64.65;99238.09;1803528;79;22168;-77
2022/07/27 04:31:07;;;;;;;5.87;3.35;;;;;;;21.18;64.61;99244.99;1809109;77;21096;-78
2022/07/27 04:33:34;;;;;;;4.40;3.62;;;;;;;21.30;64.42;99246.22;1807742;79;21001;-77
2022/07/27 04:36:02;;;;;;;4.12;3.42;;;;;;;21.44;64.35;99249.94;1813936;78;21033;-77
2022/07/27 04:38:29;;;;;;;3.60;3.30;;;;;;;21.56;63.42;99251.45;1800107;78;21509;-75
2022/07/27 04:40:55;;;;;;;6.00;3.02;;;;;;;21.66;62.64;99253.45;1791000;78;21575;-76
2022/07/27 04:43:24;;;;;;;5.37;4.00;;;;;;;21.78;62.66;99251.96;1805056;78;21215;-77
2022/07/27 04:45:50;;;;;;;4.60;3.10;;;;;;;21.87;62.67;99246.39;1822235;78;21021;-79
2022/07/27 04:48:17;;;;;;;5.65;3.45;;;;;;;21.95;62.45;99245.12;1814905;78;21112;-76
2022/07/27 04:50:44;;;;;;;4.20;3.80;;;;;;;22.01;62.31;99249.50;1817878;78;21006;-75
2022/07/27 04:53:11;;;;;;;4.10;3.50;;;;;;;22.09;62.25;99253.09;1823923;77;21045;-77
2022/07/27 04:55:44;;;;;;;5.85;3.50;;;;;;;22.23;61.88;99251.33;1817774;78;21541;-77
2022/07/27 04:58:11;;;;;;;3.77;3.22;;;;;;;22.43;61.25;99246.67;1827391;78;21033;-76
2022/07/27 05:00:37;;;;;;;4.42;3.22;;;;;;;22.56;60.49;99247.56;1819818;78;21075;-77
2022/07/27 05:03:03;;;;;;;4.60;3.40;;;;;;;22.65;60.69;99247.37;1821921;78;21091;-78
2022/07/27 05:05:31;;;;;;;3.90;3.33;;;;;;;22.81;60.52;99249.64;1823519;78;21036;-79
2022/07/27 05:07:59;;;;;;;4.42;3.10;;;;;;;22.99;59.69;99253.03;1826842;77;21127;-77
2022/07/27 05:10:25;;;;;;;3.27;2.85;;;;;;;23.11;59.08;99251.77;1822319;78;21025;-77
2022/07/27 05:12:52;;;;;;;3.58;3.12;;;;;;;23.21;58.51;99258.32;1827582;77;21024;-79
2022/07/27 05:15:19;;;;;;;3.83;3.45;;;;;;;23.27;58.45;99255.91;1822379;78;21028;-78
2022/07/27 05:17:46;;;;;;;4.78;3.15;;;;;;;23.32;58.45;99258.66;1808055;78;21096;-78
2022/07/27 05:20:13;;;;;;;4.15;2.92;;;;;;;23.35;58.30;99256.23;1820184;78;21228;-78
2022/07/27 05:22:39;;;;;;;3.62;2.85;;;;;;;23.41;58.20;99261.14;1822645;77;22040;-79
2022/07/27 05:25:07;;;;;;;4.78;2.60;;;;;;;23.47;58.38;99266.86;1821715;78;21041;-77
2022/07/27 05:27:36;;;;;;;3.12;2.58;;;;;;;23.52;58.18;99264.70;1815265;78;21030;-79
2022/07/27 05:30:05;;;;;;;3.90;2.98;;;;;;;23.57;57.99;99269.34;1818503;77;21655;-81
2022/07/27 05:32:31;;;;;;;3.40;3.10;;;;;;;23.63;57.84;99267.72;1824907;78;22320;-82
2022/07/27 05:34:57;;;;;;;4.12;3.15;;;;;;;23.69;57.46;99265.84;1823874;78;21033;-83
2022/07/27 05:37:24;;;;;;;5.72;3.25;;;;;;;23.74;57.47;99271.30;1809473;78;21053;-86
2022/07/27 05:39:50;;;;;;;4.20;3.80;;;;;;;23.78;57.31;99271.06;1820920;78;20954;-86
2022/07/27 05:42:17;;;;;;;5.50;2.85;;;;;;;23.82;57.27;99272.70;1807023;77;21423;-85
2022/07/27 05:44:44;;;;;;;4.15;2.95;;;;;;;23.89;57.35;99269.18;1813946;78;21435;-86
2022/07/27 05:47:10;;;;;;;5.03;3.85;;;;;;;23.96;57.38;99275.17;1797396;77;21052;-82
2022/07/27 05:49:38;;;;;;;3.65;3.17;;;;;;;24.05;57.06;99269.50;1806056;79;21556;-85
2022/07/27 05:52:05;;;;;;;7.22;3.72;;;;;;;24.12;57.12;99272.75;1802994;79;20997;-84
2022/07/27 05:54:31;;;;;;;4.35;3.37;;;;;;;24.23;56.89;99281.73;1790505;78;21034;-85
2022/07/27 05:56:58;;;;;;;3.42;3.00;;;;;;;24.29;55.65;99275.77;1811786;78;21571;-85
2022/07/27 05:59:25;;;;;;;6.47;2.85;;;;;;;24.36;55.00;99285.83;1806080;78;20950;-86
2022/07/27 06:01:52;;;;;;;6.47;3.00;;;;;;;24.36;55.03;99282.28;1804567;79;21529;-83
2022/07/27 06:04:19;;;;;;;5.35;3.20;;;;;;;24.37;55.23;99282.57;1800860;79;20982;-87
2022/07/27 06:09:32;;;;;;;5.67;3.12;;;;;;;24.50;55.33;99283.39;1798727;78;22654;-86
2022/07/27 06:11:58;;;;;;;4.90;3.02;;;;;;;24.53;55.09;99286.94;1812267;78;21150;-84
2022/07/27 06:14:27;;;;;;;3.20;2.87;;;;;;;24.58;54.63;99290.22;1815075;79;21148;-86
2022/07/27 06:16:54;;;;;;;4.67;3.42;;;;;;;24.62;54.64;99289.94;1793754;78;21026;-84
2022/07/27 06:19:20;;;;;;;4.62;3.30;;;;;;;24.66;54.71;99287.75;1805952;77;21003;-82
2022/07/27 06:21:47;;;;;;;4.80;3.45;;;;;;;24.75;54.62;99284.52;1796212;79;21142;-84
2022/07/27 06:24:13;;;;;;;4.08;3.05;;;;;;;24.79;54.35;99286.40;1809476;79;21080;-84
2022/07/27 06:26:40;;;;;;;5.03;3.17;;;;;;;24.81;54.18;99280.15;1785864;79;21048;-83
2022/07/27 06:29:07;;;;;;;6.42;3.52;;;;;;;24.82;53.88;99281.80;1798807;79;21517;-84
2022/07/27 06:31:34;;;;;;;5.20;3.12;;;;;;;24.83;54.24;99296.18;1802816;77;21529;-81
2022/07/27 06:34:01;;;;;;;6.67;3.80;;;;;;;24.86;54.51;99287.47;1748639;80;22046;-81
2022/07/27 06:36:28;;;;;;;5.08;2.90;;;;;;;24.93;54.54;99287.45;1740684;80;21003;-82
2022/07/27 06:38:55;;;;;;;3.40;3.10;;;;;;;25.02;54.10;99282.84;1757377;80;21017;-82
2022/07/27 06:41:21;;;;;;;5.05;3.52;;;;;;;25.13;53.75;99280.38;1747562;80;21019;-82
2022/07/27 06:43:48;;;;;;;5.20;3.02;;;;;;;25.22;53.66;99281.45;1744057;81;21081;-83
2022/07/27 06:46:14;;;;;;;4.95;3.08;;;;;;;25.35;52.76;99280.62;1748637;81;21279;-83
2022/07/27 06:48:41;;;;;;;2.98;2.67;;;;;;;25.44;52.00;99287.93;1759636;81;21015;-82
2022/07/27 06:51:07;;;;;;;4.17;2.77;;;;;;;25.47;51.41;99290.63;1764160;81;21003;-83
2022/07/27 06:53:34;;;;;;;4.67;2.75;;;;;;;25.51;51.58;99284.89;1754031;79;20983;-84
2022/07/27 06:56:02;;;;;;;4.50;3.00;;;;;;;25.58;50.66;99285.42;1739794;80;21049;-83
2022/07/27 06:58:31;;;;;;;7.58;3.40;;;;;;;25.62;49.89;99286.48;1771125;80;21540;-83
2022/07/27 07:01:01;;;;;;;4.67;3.10;;;;;;;25.65;49.95;99282.39;1742976;81;21396;-83
2022/07/27 07:03:29;;;;;;;3.80;3.00;;;;;;;25.67;50.22;99281.03;1766522;80;21046;-83
2022/07/27 07:05:56;;;;;;;4.70;2.80;;;;;;;25.73;50.18;99282.35;1759865;80;21018;-77
2022/07/27 07:08:24;;;;;;;4.37;3.12;;;;;;;25.83;50.09;99280.96;1761333;80;21010;-77
2022/07/27 07:10:55;;;;;;;4.53;2.95;;;;;;;25.97;49.87;99281.19;1764579;80;21240;-78
2022/07/27 07:13:24;;;;;;;7.47;3.45;;;;;;;26.06;50.15;99280.86;1759036;80;21019;-76
2022/07/27 07:15:52;;;;;;;4.50;3.20;;;;;;;26.16;50.17;99282.70;1765186;80;21065;-75
2022/07/27 07:18:20;;;;;;;5.35;3.20;;;;;;;26.27;50.34;99284.27;1758063;80;21120;-75
2022/07/27 07:20:47;;;;;;;10.18;4.05;;;;;;;26.38;50.16;99282.27;1767569;80;21066;-77
2022/07/27 07:23:13;;;;;;;3.20;2.85;;;;;;;26.49;49.88;99281.91;1753020;80;21097;-78
2022/07/27 07:25:40;;;;;;;5.80;3.20;;;;;;;26.59;48.84;99282.95;1768858;80;21046;-76
2022/07/27 07:28:07;;;;;;;7.20;3.30;;;;;;;26.62;48.55;99285.92;1762407;79;21042;-81
2022/07/27 07:30:34;;;;;;;3.72;2.95;;;;;;;26.63;48.41;99278.00;1758747;80;21105;-80
2022/07/27 07:33:01;;;;;;;3.65;3.35;;;;;;;26.62;48.32;99272.30;1762355;81;21053;-80
2022/07/27 07:35:28;;;;;;;5.55;3.12;;;;;;;26.65;48.66;99273.08;1771820;80;22063;-82
2022/07/27 07:37:55;;;;;;;3.62;3.30;;;;;;;26.74;48.05;99275.20;1722744;81;21599;-79
2022/07/27 07:40:22;;;;;;;4.55;2.90;;;;;;;26.80;47.49;99274.05;1757272;80;21076;-79
2022/07/27 07:42:54;;;;;;;4.37;3.17;;;;;;;26.87;47.61;99275.34;1797246;77;21021;-81
2022/07/27 07:45:21;;;;;;;7.58;2.92;;;;;;;26.96;47.72;99275.52;1801043;77;21077;-81
2022/07/27 07:47:49;;;;;;;4.55;2.83;;;;;;;27.05;47.03;99278.44;1806977;78;21119;-78
2022/07/27 07:50:17;;;;;;;3.65;3.12;;;;;;;27.02;47.26;99279.00;1804858;78;21061;-78
2022/07/27 07:52:50;;;;;;;4.37;2.90;;;;;;;27.01;46.86;99278.76;1808029;79;21053;-78
2022/07/27 07:55:24;;;;;;;3.08;2.70;;;;;;;26.97;46.93;99274.42;1803654;79;21672;-80
2022/07/27 07:57:50;;;;;;;5.70;3.65;;;;;;;26.97;47.06;99273.06;1808450;77;21532;-79
2022/07/27 08:00:20;;;;;;;6.47;3.05;;;;;;;27.05;47.20;99275.16;1807842;78;21630;-76
2022/07/27 08:02:53;;;;;;;3.80;3.00;;;;;;;27.11;47.06;99276.47;1807454;77;21032;-77
2022/07/27 08:05:21;;;;;;;3.95;3.02;;;;;;;27.18;46.47;99281.84;1804587;77;21536;-75
2022/07/27 08:07:49;;;;;;;3.90;2.80;;;;;;;27.15;46.02;99278.32;1800740;78;21721;-77
2022/07/27 08:10:19;;;;;;;3.25;2.95;;;;;;;27.09;46.04;99283.57;1797557;77;21026;-79
2022/07/27 08:12:50;;;;;;;3.08;2.70;;;;;;;27.04;46.24;99281.72;1803835;77;21230;-75
2022/07/27 08:15:18;;;;;;;3.00;2.80;;;;;;;27.09;46.64;99280.05;1803442;78;21018;-76
2022/07/27 08:17:46;;;;;;;3.00;2.75;;;;;;;27.22;46.61;99277.44;1806499;79;21338;-77
2022/07/27 08:20:14;;;;;;;3.80;2.95;;;;;;;27.42;46.54;99274.24;1807295;77;21014;-76
2022/07/27 08:22:41;;;;;;;3.90;3.05;;;;;;;27.63;46.17;99278.89;1810410;78;21068;-78
2022/07/27 08:25:10;;;;;;;3.47;3.17;;;;;;;27.80;46.11;99276.48;1798032;79;21575;-76
2022/07/27 08:27:36;;;;;;;5.62;3.20;;;;;;;27.96;45.58;99271.65;1806863;79;21076;-75
2022/07/27 08:30:05;;;;;;;3.50;2.83;;;;;;;28.07;45.11;99276.95;1791862;79;21561;-74
2022/07/27 08:32:32;;;;;;;3.77;3.30;;;;;;;28.03;45.15;99273.46;1801824;78;21033;-75
2022/07/27 08:34:58;;;;;;;3.12;2.80;;;;;;;28.02;45.51;99277.28;1801994;78;21548;-76
2022/07/27 08:37:27;;;;;;;5.55;3.30;;;;;;;28.09;45.37;99268.74;1809318;77;21177;-76
2022/07/27 08:39:53;;;;;;;4.22;3.00;;;;;;;28.26;45.94;99275.05;1797733;79;21045;-75
2022/07/27 08:42:21;;;;;;;4.22;2.87;;;;;;;28.48;45.99;99260.75;1808915;78;21045;-76
2022/07/27 08:44:48;;;;;;;3.02;2.72;;;;;;;28.68;45.17;99271.91;1823938;77;20982;-75
2022/07/27 08:47:15;;;;;;;3.35;3.05;;;;;;;28.85;45.36;99270.55;1802997;77;21068;-78
2022/07/27 08:49:42;;;;;;;6.33;3.00;;;;;;;28.92;44.42;99273.70;1816483;78;21233;-77
2022/07/27 08:52:11;;;;;;;4.70;3.35;;;;;;;28.92;43.98;99269.05;1816834;78;21040;-76
2022/07/27 08:54:39;;;;;;;5.30;3.22;;;;;;;28.94;44.29;99266.02;1812859;77;21571;-77
2022/07/27 08:58:14;;;;;;;3.83;3.52;;;;;;;29.12;44.43;99257.47;1873657;75;22737;-77
2022/07/27 09:00:44;;;;;;;4.87;3.40;;;;;;;29.19;44.17;99260.66;1848754;77;21056;-77
2022/07/27 09:03:12;;;;;;;3.20;2.92;;;;;;;29.19;43.96;99271.02;1778403;80;21223;-76
2022/07/27 09:05:42;;;;;;;4.58;3.20;;;;;;;29.10;43.63;99269.27;1806833;78;20922;-75
2022/07/27 09:08:20;;;;;;;3.50;3.20;;;;;;;28.95;43.62;99267.63;1797130;78;21298;-77
2022/07/27 09:10:47;;;;;;;6.15;3.37;;;;;;;28.90;43.43;99275.38;1804161;79;21028;-75
2022/07/27 09:13:21;;;;;;;6.42;2.90;;;;;;;28.92;43.40;99275.08;1773498;80;21497;-74
2022/07/27 09:15:58;;;;;;;4.40;3.20;;;;;;;28.95;43.16;99271.16;1805014;78;22309;-75
2022/07/27 09:18:28;;;;;;;2.87;2.52;;;;;;;28.95;42.90;99276.63;1789118;80;21489;-74
2022/07/27 09:21:15;;;;;;;2.98;2.72;;;;;;;28.96;42.50;99273.36;1784158;80;21006;-74
2022/07/27 09:23:53;;;;;;;4.28;3.10;;;;;;;29.01;42.42;99274.61;1768212;80;21045;-76
2022/07/27 09:26:22;;;;;;;6.00;3.10;;;;;;;29.13;42.39;99263.20;1802984;78;21036;-77
2022/07/27 09:29:10;;;;;;;4.08;2.87;;;;;;;29.45;42.59;99258.76;1778556;79;21284;-76
2022/07/27 09:31:47;;;;;;;4.35;3.00;;;;;;;29.79;41.38;99263.25;1806257;78;21080;-76
2022/07/27 09:34:29;;;;;;;3.58;3.20;;;;;;;30.14;40.89;99261.37;1802914;78;21045;-76
2022/07/27 09:36:57;;;;;;;3.80;2.65;;;;;;;30.46;40.56;99256.26;1802596;78;21033;-74
2022/07/27 09:39:25;;;;;;;4.35;3.17;;;;;;;30.82;40.15;99258.63;1800346;78;21084;-78
2022/07/27 09:41:58;;;;;;;5.15;3.15;;;;;;;31.02;40.10;99259.47;1797473;78;21181;-75
2022/07/27 09:44:37;;;;;;;3.37;3.00;;;;;;;31.15;40.21;99261.30;1773562;80;21545;-77
2022/07/27 09:47:27;;;;;;;4.42;3.00;;;;;;;31.21;40.40;99264.72;1767688;80;21474;-79
2022/07/27 09:50:18;;;;;;;5.35;2.98;;;;;;;31.23;39.81;99271.27;1788931;79;21049;-76
2022/07/27 09:52:45;;;;;;;4.47;3.02;;;;;;;31.14;39.45;99269.87;1793231;78;21012;-78
2022/07/27 09:55:12;;;;;;;4.08;2.83;;;;;;;31.03;39.72;99261.67;1794843;78;21623;-79
2022/07/27 09:57:56;;;;;;;4.17;2.85;;;;;;;31.03;39.34;99264.41;1802591;78;21053;-74
2022/07/27 10:00:25;;;;;;;3.85;2.62;;;;;;;31.02;39.55;99265.52;1761215;79;21020;-75
2022/07/27 10:02:52;;;;;;;4.25;2.60;;;;;;;31.15;39.40;99267.36;1762865;79;21134;-75
2022/07/27 10:05:21;;;;;;;3.47;2.67;;;;;;;31.42;38.92;99267.69;1769523;79;21590;-73
2022/07/27 10:07:52;;;;;;;3.77;3.00;;;;;;;31.83;38.39;99262.38;1760218;79;21765;-76
2022/07/27 10:10:19;;;;;;;4.05;3.33;;;;;;;32.13;37.88;99267.53;1766774;79;21463;-76
2022/07/27 10:12:47;;;;;;;6.78;3.22;;;;;;;32.33;37.84;99272.13;1758860;81;21024;-77
2022/07/27 10:15:13;;;;;;;4.70;2.92;;;;;;;32.43;37.72;99262.73;1747751;80;21535;-76
2022/07/27 10:17:42;;;;;;;3.72;3.27;;;;;;;32.60;37.49;99275.11;1772363;79;21001;-77
2022/07/27 10:20:11;;;;;;;4.25;3.08;;;;;;;32.74;37.50;99265.86;1777553;79;22125;-75
2022/07/27 10:22:53;;;;;;;4.22;3.20;;;;;;;32.98;37.57;99266.69;1736212;80;21042;-75
2022/07/27 10:25:24;;;;;;;3.37;2.87;;;;;;;33.53;37.34;99263.03;1779412;80;21548;-74
2022/07/27 10:28:17;;;;;;;5.75;2.80;;;;;;;34.31;36.52;99256.73;1737314;80;21739;-77
2022/07/27 10:30:43;;;;;;;4.08;3.00;;;;;;;34.90;35.82;99261.19;1786094;79;21101;-74
2022/07/27 10:33:43;;;;;;;4.03;3.17;;;;;;;35.09;34.97;99259.26;1765255;79;21219;-78
2022/07/27 10:36:32;;;;;;;3.33;3.10;;;;;;;34.79;35.27;99263.02;1765760;79;21103;-80
2022/07/27 10:39:05;;;;;;;2.85;2.65;;;;;;;34.41;35.38;99259.89;1764098;79;21025;-73
2022/07/27 10:41:40;;;;;;;3.72;3.10;;;;;;;34.01;35.52;99256.23;1795732;78;21548;-78
2022/07/27 10:44:21;;;;;;;5.70;3.12;;;;;;;33.60;36.27;99248.17;1765345;79;21096;-75
2022/07/27 10:46:55;;;;;;;3.50;3.20;;;;;;;33.32;36.93;99261.60;1769793;79;22104;-73
2022/07/27 10:49:33;;;;;;;3.25;2.85;;;;;;;33.15;37.03;99261.14;1781489;79;21064;-76
2022/07/27 10:52:00;;;;;;;2.72;2.47;;;;;;;32.93;36.93;99267.66;1766698;80;21132;-76
2022/07/27 10:54:38;;;;;;;4.00;2.85;;;;;;;32.63;37.04;99262.09;1771473;79;21552;-79
2022/07/27 10:57:07;;;;;;;4.05;2.83;;;;;;;32.36;37.26;99261.06;1776177;79;20997;-77
2022/07/27 10:59:46;;;;;;;3.08;2.87;;;;;;;32.11;38.18;99267.62;1773051;79;21610;-76
2022/07/27 11:02:15;;;;;;;3.20;3.00;;;;;;;31.83;38.44;99263.75;1782232;79;21108;-79
2022/07/27 11:04:51;;;;;;;3.22;2.67;;;;;;;31.57;38.64;99268.42;1780685;79;21041;-77
2022/07/27 11:07:21;;;;;;;4.35;2.60;;;;;;;31.32;39.16;99272.11;1779800;79;20994;-76
2022/07/27 11:09:50;;;;;;;3.08;2.58;;;;;;;31.07;39.71;99272.25;1752297;79;21018;-76
2022/07/27 11:12:17;;;;;;;3.83;3.33;;;;;;;30.85;39.90;99277.18;1759385;79;21140;-77
2022/07/27 11:14:50;;;;;;;3.00;2.67;;;;;;;30.69;40.30;99275.41;1780574;79;21080;-76
2022/07/27 11:17:21;;;;;;;4.08;2.62;;;;;;;30.50;40.05;99272.32;1781206;80;21119;-77
2022/07/27 11:19:55;;;;;;;3.27;2.40;;;;;;;30.34;40.41;99281.45;1813383;78;21532;-77
2022/07/27 11:22:39;;;;;;;2.92;2.42;;;;;;;30.25;41.04;99270.15;1812951;78;21600;-77
2022/07/27 11:25:06;;;;;;;6.45;2.80;;;;;;;30.17;41.26;99277.17;1772025;78;22064;-77
2022/07/27 11:27:49;;;;;;;3.33;2.60;;;;;;;30.08;41.47;99277.69;1783084;78;21057;-78
2022/07/27 11:30:26;;;;;;;3.90;2.05;;;;;;;30.03;41.54;99281.91;1766000;80;21524;-77
2022/07/27 11:32:54;;;;;;;4.67;2.83;;;;;;;29.90;41.40;99285.75;1797401;78;21082;-78
2022/07/27 11:35:23;;;;;;;3.20;2.05;;;;;;;29.68;41.54;99282.91;1811541;78;21072;-78
2022/07/27 11:37:58;;;;;;;4.47;2.45;;;;;;;29.44;41.83;99279.02;1778579;78;21737;-77
2022/07/27 11:40:25;;;;;;;8.13;2.35;;;;;;;29.28;42.09;99283.98;1789222;78;21072;-78
2022/07/27 11:42:52;;;;;;;3.70;2.50;;;;;;;29.15;42.34;99289.16;1768188;78;21099;-77
2022/07/27 11:45:28;;;;;;;4.12;2.08;;;;;;;29.01;42.64;99289.11;1778699;79;21077;-77
2022/07/27 11:47:56;;;;;;;4.35;2.52;;;;;;;28.90;42.78;99289.61;1774941;79;21085;-76